createdAt,value
2018-11-23T00:00:23.367Z,17.98
2018-11-23T00:02:52.520Z,18.37
2018-11-23T00:05:21.522Z,18.00
2018-11-23T00:07:50.809Z,18.55
2018-11-23T00:10:20.817Z,17.95
2018-11-23T00:12:50.271Z,19.17
2018-11-23T00:15:20.144Z,18.23
2018-11-23T00:17:48.707Z,17.62
2018-11-23T00:20:19.770Z,15.88
2018-11-23T00:22:48.325Z,15.00
2018-11-23T00:25:18.201Z,14.20
2018-11-23T00:27:47.132Z,15.35
2018-11-23T00:30:16.965Z,14.10
2018-11-23T00:32:45.859Z,14.55
2018-11-23T00:35:16.252Z,14.73
2018-11-23T00:37:45.575Z,14.00
2018-11-23T00:40:23.681Z,14.28
2018-11-23T00:42:52.659Z,14.18
2018-11-23T00:45:21.657Z,12.95
2018-11-23T00:47:50.965Z,13.53
2018-11-23T00:50:20.730Z,14.07
2018-11-23T00:52:50.607Z,13.78
2018-11-23T00:55:20.192Z,15.32
2018-11-23T00:57:48.712Z,15.95
2018-11-23T01:00:26.795Z,17.20
2018-11-23T01:02:56.153Z,16.15
2018-11-23T01:05:24.668Z,15.53
2018-11-23T01:07:53.178Z,15.23
2018-11-23T01:10:23.032Z,13.45
2018-11-23T01:12:52.830Z,13.62
2018-11-23T01:15:21.567Z,13.98
2018-11-23T01:17:50.236Z,12.73
2018-11-23T01:20:22.097Z,13.90
2018-11-23T01:22:51.387Z,12.70
2018-11-23T01:25:21.414Z,13.08
2018-11-23T01:27:51.081Z,12.30
2018-11-23T01:30:23.444Z,12.70
2018-11-23T01:32:52.105Z,12.30
2018-11-23T01:35:20.707Z,12.80
2018-11-23T01:37:50.029Z,12.70
2018-11-23T01:40:21.210Z,11.85
2018-11-23T01:42:50.561Z,12.98
2018-11-23T01:45:19.301Z,12.82
2018-11-23T01:47:48.195Z,11.73
2018-11-23T01:50:19.050Z,11.55
2018-11-23T01:52:48.687Z,11.83
2018-11-23T01:55:17.989Z,12.55
2018-11-23T01:57:47.051Z,12.15
2018-11-23T02:00:18.590Z,11.33
2018-11-23T02:02:47.815Z,12.00
2018-11-23T02:05:16.425Z,11.22
2018-11-23T02:07:44.906Z,11.73
2018-11-23T02:10:15.033Z,11.57
2018-11-23T02:12:43.817Z,12.65
2018-11-23T02:15:14.970Z,11.53
2018-11-23T02:17:43.599Z,12.45
2018-11-23T02:20:13.762Z,12.60
2018-11-23T02:22:42.616Z,11.65
2018-11-23T02:25:11.810Z,10.63
2018-11-23T02:27:41.305Z,11.85
2018-11-23T02:30:13.635Z,11.70
2018-11-23T02:32:42.690Z,11.95
2018-11-23T02:35:11.896Z,11.00
2018-11-23T02:37:40.602Z,12.37
2018-11-23T02:40:10.604Z,11.30
2018-11-23T02:42:39.656Z,11.18
2018-11-23T02:45:12.256Z,12.20
2018-11-23T02:47:41.656Z,11.93
2018-11-23T02:50:10.413Z,10.53
2018-11-23T02:52:39.625Z,11.03
2018-11-23T02:55:09.161Z,11.38
2018-11-23T02:57:37.933Z,10.48
2018-11-23T03:00:09.002Z,10.90
2018-11-23T03:02:37.527Z,11.57
2018-11-23T03:05:07.036Z,11.65
2018-11-23T03:07:36.592Z,9.88
2018-11-23T03:10:05.956Z,10.53
2018-11-23T03:12:34.585Z,10.60
2018-11-23T03:15:03.177Z,11.38
2018-11-23T03:17:31.883Z,11.33
2018-11-23T03:20:00.449Z,11.28
2018-11-23T03:22:29.045Z,10.60
2018-11-23T03:24:57.637Z,10.43
2018-11-23T03:27:26.101Z,10.35
2018-11-23T03:29:54.616Z,10.45
2018-11-23T03:32:23.656Z,10.32
2018-11-23T03:34:52.238Z,10.25
2018-11-23T03:37:20.730Z,10.60
2018-11-23T03:39:49.432Z,10.10
2018-11-23T03:42:18.385Z,9.13
2018-11-23T03:44:47.117Z,9.10
2018-11-23T03:47:15.714Z,9.80
2018-11-23T03:49:44.544Z,10.32
2018-11-23T03:52:13.825Z,9.75
2018-11-23T03:54:42.396Z,10.13
2018-11-23T03:57:11.004Z,10.40
2018-11-23T03:59:40.207Z,9.60
2018-11-23T04:02:08.817Z,9.98
2018-11-23T04:04:37.399Z,10.30
2018-11-23T04:07:06.330Z,10.20
2018-11-23T04:09:34.981Z,10.63
2018-11-23T04:12:04.312Z,10.05
2018-11-23T04:14:32.948Z,10.72
2018-11-23T04:17:01.451Z,9.65
2018-11-23T04:19:30.121Z,10.53
2018-11-23T04:21:58.717Z,9.93
2018-11-23T04:24:27.292Z,10.15
2018-11-23T04:26:55.893Z,9.58
2018-11-23T04:29:24.462Z,10.03
2018-11-23T04:31:52.989Z,10.03
2018-11-23T04:34:21.933Z,9.18
2018-11-23T04:36:50.425Z,9.63
2018-11-23T04:39:18.948Z,10.28
2018-11-23T04:41:48.036Z,9.40
2018-11-23T04:44:16.522Z,9.93
2018-11-23T04:46:45.975Z,10.18
2018-11-23T04:49:14.524Z,9.85
2018-11-23T04:51:43.185Z,10.10
2018-11-23T04:54:11.720Z,9.65
2018-11-23T04:56:40.877Z,9.45
2018-11-23T04:59:09.333Z,9.95
2018-11-23T05:01:38.072Z,9.68
2018-11-23T05:04:06.838Z,10.20
2018-11-23T05:06:35.466Z,10.13
2018-11-23T05:09:06.304Z,9.45
2018-11-23T05:11:35.033Z,9.95
2018-11-23T05:14:03.785Z,10.35
2018-11-23T05:16:32.897Z,10.30
2018-11-23T05:19:01.547Z,10.50
2018-11-23T05:21:30.225Z,10.85
2018-11-23T05:23:59.060Z,10.55
2018-11-23T05:26:27.934Z,9.50
2018-11-23T05:28:56.852Z,9.63
2018-11-23T05:31:26.632Z,10.82
2018-11-23T05:33:55.301Z,10.03
2018-11-23T05:36:23.870Z,9.70
2018-11-23T05:38:52.518Z,10.00
2018-11-23T05:41:21.161Z,10.85
2018-11-23T05:43:50.240Z,9.33
2018-11-23T05:46:18.713Z,10.08
2018-11-23T05:48:47.513Z,10.30
2018-11-23T05:51:16.111Z,9.90
2018-11-23T05:53:44.647Z,9.78
2018-11-23T05:56:13.317Z,8.98
2018-11-23T05:58:42.753Z,9.73
2018-11-23T06:01:11.256Z,9.00
2018-11-23T06:03:39.924Z,9.23
2018-11-23T06:06:08.708Z,9.95
2018-11-23T06:08:37.227Z,9.25
2018-11-23T06:11:06.466Z,9.88
2018-11-23T06:13:35.073Z,10.10
2018-11-23T06:16:03.680Z,10.40
2018-11-23T06:18:32.889Z,10.95
2018-11-23T06:21:02.068Z,10.45
2018-11-23T06:23:31.072Z,9.70
2018-11-23T06:26:18.723Z,10.60
2018-11-23T06:28:47.559Z,10.72
2018-11-23T06:31:16.291Z,10.20
2018-11-23T06:33:47.166Z,10.20
2018-11-23T06:36:15.701Z,10.23
2018-11-23T06:38:44.249Z,10.58
2018-11-23T06:41:13.573Z,8.68
2018-11-23T06:43:42.072Z,9.05
2018-11-23T06:46:11.869Z,10.25
2018-11-23T06:48:40.388Z,10.35
2018-11-23T06:51:09.286Z,9.53
2018-11-23T06:53:38.043Z,9.93
2018-11-23T06:56:07.020Z,9.78
2018-11-23T06:58:35.863Z,9.80
2018-11-23T07:01:04.605Z,9.78
2018-11-23T07:03:33.265Z,9.90
2018-11-23T07:06:01.872Z,9.55
2018-11-23T07:08:30.698Z,10.00
2018-11-23T07:11:00.888Z,9.65
2018-11-23T07:13:30.409Z,9.58
2018-11-23T07:15:59.334Z,10.08
2018-11-23T07:18:28.257Z,9.63
2018-11-23T07:20:56.911Z,10.32
2018-11-23T07:23:25.742Z,10.08
2018-11-23T07:25:55.127Z,10.13
2018-11-23T07:28:23.774Z,10.25
2018-11-23T07:30:52.400Z,9.25
2018-11-23T07:33:21.285Z,9.08
2018-11-23T07:35:49.919Z,10.28
2018-11-23T07:38:18.565Z,9.80
2018-11-23T07:40:58.330Z,9.73
2018-11-23T07:43:26.852Z,9.70
2018-11-23T07:45:55.549Z,9.55
2018-11-23T07:48:24.262Z,10.38
2018-11-23T07:50:53.512Z,10.98
2018-11-23T07:53:22.180Z,12.05
2018-11-23T07:55:50.992Z,15.50
2018-11-23T07:58:19.724Z,16.17
2018-11-23T08:00:48.340Z,16.82
2018-11-23T08:03:16.941Z,16.00
2018-11-23T08:05:45.444Z,19.70
2018-11-23T08:08:14.096Z,28.52
2018-11-23T08:10:41.943Z,47.03
2018-11-23T08:13:10.525Z,36.08
2018-11-23T08:15:39.778Z,30.40
2018-11-23T08:18:08.993Z,31.97
2018-11-23T08:20:37.610Z,31.17
2018-11-23T08:23:06.126Z,30.95
2018-11-23T08:25:34.633Z,31.90
2018-11-23T08:28:03.736Z,33.90
2018-11-23T08:30:32.253Z,30.52
2018-11-23T08:33:00.833Z,34.33
2018-11-23T08:35:30.106Z,36.63
2018-11-23T08:37:58.725Z,29.15
2018-11-23T08:40:28.010Z,25.72
2018-11-23T08:42:57.289Z,22.13
2018-11-23T08:45:26.838Z,25.77
2018-11-23T08:47:55.386Z,29.42
2018-11-23T08:50:25.566Z,26.42
2018-11-23T08:52:54.233Z,24.60
2018-11-23T08:55:23.342Z,33.18
2018-11-23T08:57:51.883Z,29.42
2018-11-23T09:00:25.048Z,23.60
2018-11-23T09:02:55.218Z,20.77
2018-11-23T09:05:23.846Z,22.58
2018-11-23T09:07:53.518Z,20.57
2018-11-23T09:10:23.760Z,28.55
2018-11-23T09:12:54.180Z,25.05
2018-11-23T09:15:22.987Z,35.10
2018-11-23T09:17:51.585Z,52.05
2018-11-23T09:20:20.527Z,115.70
2018-11-23T09:22:49.373Z,163.62
2018-11-23T09:25:20.336Z,153.53
2018-11-23T09:27:49.243Z,122.95
2018-11-23T09:30:19.617Z,133.65
2018-11-23T09:32:48.940Z,234.45
2018-11-23T09:35:17.788Z,190.00
2018-11-23T09:37:47.027Z,196.72
2018-11-23T09:40:17.933Z,151.68
2018-11-23T09:42:46.745Z,126.02
2018-11-23T09:45:24.374Z,118.10
2018-11-23T09:47:54.434Z,48.38
2018-11-23T09:50:23.988Z,37.83
2018-11-23T09:52:53.943Z,33.70
2018-11-23T09:55:24.066Z,33.60
2018-11-23T09:57:52.191Z,33.67
2018-11-23T10:00:23.185Z,32.25
2018-11-23T10:02:52.974Z,21.48
2018-11-23T10:05:22.200Z,22.83
2018-11-23T10:07:52.460Z,17.20
2018-11-23T10:10:21.781Z,19.10
2018-11-23T10:12:50.624Z,18.95
2018-11-23T10:15:19.960Z,17.97
2018-11-23T10:17:48.748Z,17.13
2018-11-23T10:20:22.462Z,16.83
2018-11-23T10:22:51.401Z,21.57
2018-11-23T10:25:21.624Z,21.30
2018-11-23T10:27:50.379Z,23.13
2018-11-23T10:30:21.165Z,23.17
2018-11-23T10:32:51.318Z,23.57
2018-11-23T10:35:19.844Z,28.47
2018-11-23T10:37:49.712Z,28.80
2018-11-23T10:40:19.881Z,23.70
2018-11-23T10:42:48.521Z,23.00
2018-11-23T10:45:20.357Z,21.30
2018-11-23T10:47:49.926Z,20.20
2018-11-23T10:50:19.794Z,21.37
2018-11-23T10:52:48.629Z,20.73
2018-11-23T10:55:19.594Z,20.67
2018-11-23T10:57:48.396Z,21.47
2018-11-23T11:00:23.199Z,21.77
2018-11-23T11:02:58.438Z,26.13
2018-11-23T11:05:32.269Z,24.97
2018-11-23T11:08:02.924Z,26.43
2018-11-23T11:10:31.557Z,26.67
2018-11-23T11:13:00.513Z,25.73
2018-11-23T11:15:29.189Z,25.60
2018-11-23T11:17:57.803Z,25.93
2018-11-23T11:20:27.055Z,26.37
2018-11-23T11:22:56.165Z,26.90
2018-11-23T11:25:24.921Z,29.33
2018-11-23T11:27:54.193Z,26.20
2018-11-23T11:30:22.895Z,29.67
2018-11-23T11:32:52.142Z,28.17
2018-11-23T11:35:20.817Z,24.27
2018-11-23T11:37:49.356Z,26.07
2018-11-23T11:40:19.259Z,35.47
2018-11-23T11:42:47.752Z,49.63
2018-11-23T11:45:19.401Z,27.40
2018-11-23T11:47:48.579Z,23.10
2018-11-23T11:50:17.782Z,23.80
2018-11-23T11:52:47.918Z,20.83
2018-11-23T11:55:18.024Z,20.87
2018-11-23T11:57:47.380Z,22.63
2018-11-23T12:00:23.533Z,22.10
2018-11-23T12:02:52.589Z,22.00
2018-11-23T12:05:21.230Z,23.90
2018-11-23T12:07:50.040Z,24.03
2018-11-23T12:10:20.465Z,22.10
2018-11-23T12:12:49.105Z,21.40
2018-11-23T12:15:18.151Z,22.20
2018-11-23T12:17:46.880Z,21.60
2018-11-23T12:20:17.988Z,22.37
2018-11-23T12:22:47.375Z,21.00
2018-11-23T12:25:16.231Z,23.20
2018-11-23T12:27:44.910Z,22.40
2018-11-23T12:30:17.380Z,21.40
2018-11-23T12:32:47.056Z,23.70
2018-11-23T12:35:16.528Z,22.77
2018-11-23T12:37:45.091Z,25.30
2018-11-23T12:40:15.423Z,21.87
2018-11-23T12:42:44.828Z,20.70
2018-11-23T12:45:15.053Z,17.80
2018-11-23T12:47:43.704Z,17.17
2018-11-23T12:50:15.143Z,18.60
2018-11-23T12:52:43.885Z,17.97
2018-11-23T12:55:13.045Z,18.03
2018-11-23T12:57:42.591Z,17.60
2018-11-23T13:00:19.646Z,17.87
2018-11-23T13:02:50.676Z,17.30
2018-11-23T13:05:20.220Z,17.07
2018-11-23T13:07:49.568Z,18.70
2018-11-23T13:10:18.231Z,19.27
2018-11-23T13:12:50.918Z,21.70
2018-11-23T13:15:15.968Z,25.23
2018-11-23T13:17:44.764Z,21.50
2018-11-23T13:20:14.786Z,20.33
2018-11-23T13:22:43.740Z,17.77
2018-11-23T13:25:14.985Z,19.27
2018-11-23T13:27:44.657Z,21.00
2018-11-23T13:30:15.546Z,22.00
2018-11-23T13:32:44.644Z,20.70
2018-11-23T13:35:15.114Z,22.03
2018-11-23T13:37:43.865Z,19.63
2018-11-23T13:40:15.019Z,22.53
2018-11-23T13:42:43.942Z,21.23
2018-11-23T13:45:13.810Z,30.00
2018-11-23T13:47:42.668Z,26.33
2018-11-23T13:50:15.011Z,22.57
2018-11-23T13:52:44.777Z,21.60
2018-11-23T13:55:13.647Z,20.60
2018-11-23T13:57:42.515Z,19.90
2018-11-23T14:00:16.554Z,23.03
2018-11-23T14:02:45.693Z,21.30
2018-11-23T14:05:23.229Z,21.37
2018-11-23T14:07:53.379Z,21.93
2018-11-23T14:10:23.432Z,20.43
2018-11-23T14:12:52.186Z,20.77
2018-11-23T14:15:22.434Z,19.83
2018-11-23T14:17:51.977Z,21.30
2018-11-23T14:20:21.749Z,19.90
2018-11-23T14:22:50.653Z,21.93
2018-11-23T14:25:21.172Z,22.17
2018-11-23T14:27:50.473Z,23.40
2018-11-23T14:30:23.084Z,22.60
2018-11-23T14:32:51.955Z,22.33
2018-11-23T14:35:23.478Z,23.20
2018-11-23T14:37:53.236Z,22.53
2018-11-23T14:40:22.547Z,22.70
2018-11-23T14:42:51.512Z,21.93
2018-11-23T14:45:22.918Z,21.40
2018-11-23T14:47:52.558Z,19.37
2018-11-23T14:50:23.616Z,20.03
2018-11-23T14:52:53.552Z,18.73
2018-11-23T14:55:22.681Z,18.57
2018-11-23T14:57:51.832Z,17.67
2018-11-23T15:00:23.845Z,16.60
2018-11-23T15:02:53.797Z,15.00
2018-11-23T15:05:22.650Z,14.77
2018-11-23T15:07:51.426Z,14.93
2018-11-23T15:10:23.552Z,13.97
2018-11-23T15:12:54.032Z,11.53
2018-11-23T15:15:24.112Z,12.23
2018-11-23T15:17:53.543Z,12.40
2018-11-23T15:20:25.882Z,12.67
2018-11-23T15:22:56.349Z,11.27
2018-11-23T15:25:25.905Z,11.63
2018-11-23T15:27:54.546Z,10.50
2018-11-23T15:30:27.532Z,10.83
2018-11-23T15:32:56.713Z,10.10
2018-11-23T15:35:25.725Z,10.30
2018-11-23T15:37:54.501Z,10.20
2018-11-23T15:40:25.241Z,9.40
2018-11-23T15:42:57.220Z,10.50
2018-11-23T15:45:27.046Z,10.40
2018-11-23T15:47:55.959Z,10.07
2018-11-23T15:50:27.649Z,10.10
2018-11-23T15:52:56.325Z,8.97
2018-11-23T15:55:27.112Z,9.57
2018-11-23T15:57:58.217Z,10.23
2018-11-23T16:00:32.572Z,10.17
2018-11-23T16:03:01.401Z,9.77
2018-11-23T16:05:30.103Z,10.47
2018-11-23T16:08:01.438Z,11.17
2018-11-23T16:10:33.208Z,11.63
2018-11-23T16:13:10.723Z,11.80
2018-11-23T16:15:32.466Z,10.47
2018-11-23T16:18:01.642Z,10.27
2018-11-23T16:20:32.716Z,10.63
2018-11-23T16:23:03.947Z,10.50
2018-11-23T16:25:32.844Z,9.43
2018-11-23T16:28:04.237Z,9.87
2018-11-23T16:30:38.173Z,10.40
2018-11-23T16:33:08.340Z,9.47
2018-11-23T16:35:38.167Z,11.70
2018-11-23T16:38:09.296Z,8.47
2018-11-23T16:40:41.774Z,9.40
2018-11-23T16:43:11.826Z,8.47
2018-11-23T16:45:41.277Z,11.97
2018-11-23T16:48:10.939Z,19.83
2018-11-23T16:50:39.885Z,36.47
2018-11-23T16:53:08.811Z,29.90
2018-11-23T16:55:37.707Z,30.20
2018-11-23T16:58:07.729Z,25.63
2018-11-23T17:00:38.435Z,31.83
2018-11-23T17:03:10.124Z,30.73
2018-11-23T17:05:40.297Z,11.37
2018-11-23T17:08:09.959Z,9.73
2018-11-23T17:10:38.806Z,8.80
2018-11-23T17:13:07.555Z,9.47
2018-11-23T17:15:36.281Z,8.80
2018-11-23T17:18:05.224Z,9.17
2018-11-23T17:20:34.337Z,8.93
2018-11-23T17:23:04.148Z,8.30
2018-11-23T17:25:33.487Z,8.10
2018-11-23T17:28:03.975Z,8.40
2018-11-23T17:30:33.513Z,8.37
2018-11-23T17:33:02.533Z,7.93
2018-11-23T17:35:31.404Z,7.37
2018-11-23T17:38:00.149Z,7.57
2018-11-23T17:40:30.625Z,8.10
2018-11-23T17:42:59.357Z,7.77
2018-11-23T17:45:30.327Z,8.00
2018-11-23T17:47:59.279Z,7.13
2018-11-23T17:50:29.538Z,7.00
2018-11-23T17:52:58.857Z,8.07
2018-11-23T17:55:27.826Z,7.97
2018-11-23T17:58:00.981Z,79.57
2018-11-23T18:00:38.566Z,33.77
2018-11-23T18:03:01.449Z,18.03
2018-11-23T18:05:31.068Z,14.97
2018-11-23T18:08:00.475Z,30.60
2018-11-23T18:10:30.532Z,25.20
2018-11-23T18:12:59.958Z,81.23
2018-11-23T18:15:30.910Z,15.20
2018-11-23T18:18:00.725Z,21.63
2018-11-23T18:20:30.425Z,21.20
2018-11-23T18:23:00.132Z,36.20
2018-11-23T18:25:30.584Z,38.43
2018-11-23T18:28:00.274Z,38.80
2018-11-23T18:30:30.181Z,26.60
2018-11-23T18:32:58.939Z,23.37
2018-11-23T18:35:27.657Z,16.80
2018-11-23T18:37:56.315Z,11.47
2018-11-23T18:40:25.141Z,11.27
2018-11-23T18:42:53.877Z,11.10
2018-11-23T18:45:23.242Z,9.53
2018-11-23T18:47:52.412Z,9.03
2018-11-23T18:50:21.655Z,8.57
2018-11-23T18:52:50.317Z,8.00
2018-11-23T18:55:19.073Z,11.23
2018-11-23T18:57:47.902Z,12.83
2018-11-23T19:00:16.841Z,13.83
2018-11-23T19:02:46.762Z,14.63
2018-11-23T19:05:20.808Z,12.73
2018-11-23T19:07:49.496Z,11.33
2018-11-23T19:10:18.284Z,10.20
2018-11-23T19:12:47.213Z,9.17
2018-11-23T19:15:17.488Z,8.97
2018-11-23T19:17:45.867Z,10.00
2018-11-23T19:20:15.906Z,9.37
2018-11-23T19:22:46.409Z,9.50
2018-11-23T19:25:15.066Z,10.03
2018-11-23T19:27:43.726Z,10.17
2018-11-23T19:30:14.788Z,9.10
2018-11-23T19:32:43.498Z,9.77
2018-11-23T19:35:12.493Z,9.20
2018-11-23T19:37:41.317Z,8.50
2018-11-23T19:40:13.853Z,8.23
2018-11-23T19:42:43.077Z,8.83
2018-11-23T19:45:13.327Z,7.90
2018-11-23T19:47:41.951Z,8.30
2018-11-23T19:50:12.758Z,9.33
2018-11-23T19:52:41.840Z,12.87
2018-11-23T19:55:11.502Z,15.07
2018-11-23T19:57:40.392Z,17.40
2018-11-23T20:00:26.264Z,18.97
2018-11-23T20:02:55.064Z,15.33
2018-11-23T20:05:23.984Z,14.33
2018-11-23T20:07:54.220Z,10.33
2018-11-23T20:10:23.901Z,10.30
2018-11-23T20:12:54.527Z,9.70
2018-11-23T20:15:23.425Z,10.80
2018-11-23T20:17:52.256Z,10.13
2018-11-23T20:20:20.958Z,10.33
2018-11-23T20:22:50.545Z,9.90
2018-11-23T20:25:20.426Z,8.27
2018-11-23T20:27:50.587Z,9.30
2018-11-23T20:30:20.031Z,8.80
2018-11-23T20:32:49.049Z,7.83
2018-11-23T20:35:19.009Z,7.83
2018-11-23T20:37:47.780Z,8.63
2018-11-23T20:40:17.660Z,7.57
2018-11-23T20:42:46.559Z,8.20
2018-11-23T20:45:15.563Z,7.50
2018-11-23T20:47:44.603Z,7.47
2018-11-23T20:50:14.589Z,7.80
2018-11-23T20:52:43.485Z,8.17
2018-11-23T20:55:17.388Z,7.43
2018-11-23T20:57:46.314Z,7.57
2018-11-23T21:00:17.860Z,7.77
2018-11-23T21:02:47.654Z,7.60
2018-11-23T21:05:17.365Z,7.50
2018-11-23T21:07:46.419Z,7.90
2018-11-23T21:10:20.335Z,8.20
2018-11-23T21:12:47.649Z,7.30
2018-11-23T21:15:17.999Z,6.70
2018-11-23T21:17:47.410Z,6.90
2018-11-23T21:20:16.074Z,8.13
2018-11-23T21:22:44.845Z,7.87
2018-11-23T21:25:13.667Z,7.50
2018-11-23T21:27:42.355Z,7.57
2018-11-23T21:30:13.881Z,9.40
2018-11-23T21:32:42.699Z,9.23
2018-11-23T21:35:12.226Z,8.53
2018-11-23T21:37:41.908Z,8.03
2018-11-23T21:40:11.772Z,7.53
2018-11-23T21:42:40.612Z,7.17
2018-11-23T21:45:13.613Z,7.50
2018-11-23T21:47:43.301Z,7.17
2018-11-23T21:50:14.184Z,6.80
2018-11-23T21:52:43.019Z,7.67
2018-11-23T21:55:14.041Z,8.07
2018-11-23T21:57:42.867Z,7.37
2018-11-23T22:00:13.327Z,8.17
2018-11-23T22:02:42.853Z,8.33
2018-11-23T22:05:11.619Z,8.63
2018-11-23T22:07:40.277Z,8.33
2018-11-23T22:10:10.869Z,8.23
2018-11-23T22:12:39.544Z,11.70
2018-11-23T22:15:10.483Z,11.80
2018-11-23T22:17:39.865Z,11.07
2018-11-23T22:20:11.324Z,12.27
2018-11-23T22:22:40.095Z,12.07
2018-11-23T22:25:11.137Z,16.90
2018-11-23T22:27:39.820Z,18.57
2018-11-23T22:30:19.679Z,20.03
2018-11-23T22:32:48.332Z,17.87
2018-11-23T22:35:17.001Z,16.73
2018-11-23T22:37:45.690Z,16.10
2018-11-23T22:40:18.339Z,15.03
2018-11-23T22:42:49.796Z,15.50
2018-11-23T22:45:18.584Z,15.20
2018-11-23T22:47:47.300Z,13.73
2018-11-23T22:50:18.089Z,14.23
2018-11-23T22:52:47.823Z,12.90
2018-11-23T22:55:16.449Z,12.73
2018-11-23T22:57:45.976Z,12.77
2018-11-23T23:00:44.219Z,12.53
2018-11-23T23:03:13.444Z,13.20
2018-11-23T23:05:42.617Z,11.27
2018-11-23T23:08:10.781Z,12.23
2018-11-23T23:10:40.149Z,11.80
2018-11-23T23:13:09.574Z,12.23
2018-11-23T23:15:38.209Z,13.23
2018-11-23T23:18:07.451Z,12.20
2018-11-23T23:20:36.685Z,13.33
2018-11-23T23:23:06.268Z,14.73
2018-11-23T23:25:34.837Z,14.13
2018-11-23T23:28:03.461Z,13.77
2018-11-23T23:30:32.009Z,14.37
2018-11-23T23:33:01.411Z,14.20
2018-11-23T23:35:30.036Z,13.20
2018-11-23T23:37:59.394Z,13.93
2018-11-23T23:40:27.978Z,13.37
2018-11-23T23:42:56.586Z,12.80
2018-11-23T23:45:25.299Z,15.07
2018-11-23T23:47:54.821Z,15.57
2018-11-23T23:50:23.440Z,16.07
2018-11-23T23:52:52.096Z,16.10
2018-11-23T23:55:20.703Z,23.37
2018-11-23T23:57:49.645Z,23.63
